createdAt,value
2023-02-27T00:03:01.066Z,215931.00
2023-02-27T00:09:03.679Z,215917.00
2023-02-27T00:15:06.485Z,215903.00
2023-02-27T00:21:08.733Z,215895.00
2023-02-27T00:27:11.240Z,215875.00
2023-02-27T00:33:13.815Z,215870.00
2023-02-27T00:39:16.940Z,215864.00
2023-02-27T00:45:20.710Z,215889.00
2023-02-27T00:51:23.350Z,215917.00
2023-02-27T00:57:25.800Z,215889.00
2023-02-27T01:03:28.565Z,215917.00
2023-02-27T01:09:30.777Z,215909.00
2023-02-27T01:15:33.028Z,215875.00
2023-02-27T01:21:35.413Z,215889.00
2023-02-27T01:27:37.862Z,215875.00
2023-02-27T01:33:40.524Z,215903.00
2023-02-27T01:39:42.967Z,215875.00
2023-02-27T01:45:49.698Z,215917.00
2023-02-27T01:52:05.994Z,215917.00
2023-02-27T01:58:11.548Z,215937.00
2023-02-27T02:04:25.430Z,215937.00
2023-02-27T02:10:28.868Z,215937.00
2023-02-27T02:23:12.124Z,215903.00
2023-02-27T02:36:53.415Z,215875.00
2023-02-27T03:16:13.520Z,215755.00
2023-02-27T03:28:40.363Z,215775.00
2023-02-27T03:41:11.282Z,215767.00
2023-02-27T03:59:58.527Z,215775.00
2023-02-27T04:06:21.715Z,215775.00
2023-02-27T04:12:40.216Z,215797.00
2023-02-27T04:19:07.462Z,215797.00
2023-02-27T04:25:22.623Z,215836.00
2023-02-27T04:31:30.554Z,215836.00
2023-02-27T04:38:02.335Z,215828.00
2023-02-27T04:44:08.412Z,215789.00
2023-02-27T04:50:16.339Z,215742.00
2023-02-27T04:56:24.328Z,215775.00
2023-02-27T05:02:36.268Z,215816.00
2023-02-27T05:09:15.569Z,215775.00
2023-02-27T05:15:28.794Z,215702.00
2023-02-27T05:21:39.649Z,215646.00
2023-02-27T05:27:47.432Z,215605.00
2023-02-27T05:34:13.582Z,215626.00
2023-02-27T05:40:25.197Z,215577.00
2023-02-27T05:46:36.411Z,215599.00
2023-02-27T05:52:40.737Z,215694.00
2023-02-27T05:58:48.301Z,215702.00
2023-02-27T06:04:50.488Z,215720.00
2023-02-27T06:10:52.981Z,215680.00
2023-02-27T06:16:55.415Z,215728.00
2023-02-27T06:22:57.650Z,215775.00
2023-02-27T06:29:00.256Z,215856.00
2023-02-27T06:35:02.425Z,215903.00
2023-02-27T06:41:05.089Z,215979.00
2023-02-27T06:47:07.251Z,216032.00
2023-02-27T06:53:09.666Z,212017.00
2023-02-27T06:59:12.090Z,212039.00
2023-02-27T07:05:14.661Z,211983.00
2023-02-27T07:11:17.093Z,211977.00
2023-02-27T07:17:19.593Z,212031.00
2023-02-27T07:23:22.718Z,211997.00
2023-02-27T07:29:24.900Z,212031.00
2023-02-27T07:35:27.313Z,212031.00
2023-02-27T07:41:31.111Z,212086.00
2023-02-27T07:47:36.624Z,212195.00
2023-02-27T07:53:38.714Z,212223.00
2023-02-27T07:59:41.040Z,212317.00
2023-02-27T08:05:43.169Z,212427.00
2023-02-27T08:11:47.814Z,212706.00
2023-02-27T08:17:51.070Z,212788.00
2023-02-27T08:23:53.224Z,212666.00
2023-02-27T08:29:55.372Z,212588.00
2023-02-27T08:35:58.067Z,212563.00
2023-02-27T08:42:00.607Z,212666.00
2023-02-27T08:48:02.793Z,212714.00
2023-02-27T08:54:04.870Z,212646.00
2023-02-27T09:00:08.725Z,212741.00
2023-02-27T09:06:11.062Z,212760.00
2023-02-27T09:12:13.675Z,212780.00
2023-02-27T09:18:16.317Z,212766.00
2023-02-27T09:24:20.779Z,212808.00
2023-02-27T09:30:23.890Z,212816.00
2023-02-27T09:36:26.495Z,212925.00
2023-02-27T09:42:33.515Z,212883.00
2023-02-27T09:48:42.380Z,212911.00
2023-02-27T09:54:44.942Z,212925.00
2023-02-27T10:00:58.032Z,212945.00
2023-02-27T10:07:03.373Z,213025.00
2023-02-27T10:13:36.883Z,213025.00
2023-02-27T10:19:40.460Z,213103.00
2023-02-27T10:25:48.904Z,213089.00
2023-02-27T10:32:15.980Z,213039.00
2023-02-27T10:38:41.593Z,213047.00
2023-02-27T10:44:44.217Z,213212.00
2023-02-27T10:50:54.069Z,213170.00
2023-02-27T10:57:00.341Z,213184.00
2023-02-27T11:03:02.633Z,213234.00
2023-02-27T11:09:12.106Z,213254.00
2023-02-27T11:15:17.585Z,213272.00
2023-02-27T11:21:30.769Z,213467.00
2023-02-27T11:27:33.887Z,213495.00
2023-02-27T11:33:40.013Z,213700.00
2023-02-27T11:39:50.938Z,213858.00
2023-02-27T11:46:04.386Z,213872.00
2023-02-27T11:52:41.974Z,213864.00
2023-02-27T11:58:56.079Z,213858.00
2023-02-27T12:05:17.390Z,214052.00
2023-02-27T12:11:28.606Z,214446.00
2023-02-27T12:17:40.442Z,215469.00
2023-02-27T12:24:08.934Z,217965.00
2023-02-27T12:30:20.085Z,218715.00
2023-02-27T12:36:22.916Z,218330.00
2023-02-27T12:42:57.947Z,216521.00
2023-02-27T12:49:17.428Z,215902.00
2023-02-27T12:55:27.435Z,215518.00
2023-02-27T13:01:56.726Z,215329.00
2023-02-27T13:08:21.595Z,214695.00
2023-02-27T13:14:35.220Z,214404.00
2023-02-27T13:21:05.144Z,214355.00
2023-02-27T13:27:36.735Z,214523.00
2023-02-27T13:33:48.935Z,214432.00
2023-02-27T13:39:53.420Z,214515.00
2023-02-27T13:45:58.636Z,214466.00
2023-02-27T13:52:02.401Z,214482.00
2023-02-27T13:58:05.918Z,214515.00
2023-02-27T14:04:08.405Z,214438.00
2023-02-27T14:10:11.845Z,214496.00
2023-02-27T14:16:40.222Z,214474.00
2023-02-27T14:23:13.560Z,214260.00
2023-02-27T14:29:18.492Z,214185.00
2023-02-27T14:35:20.762Z,214296.00
2023-02-27T14:41:34.766Z,214078.00
2023-02-27T14:47:38.579Z,214011.00
2023-02-27T14:53:40.805Z,213983.00
2023-02-27T14:59:45.728Z,213969.00
2023-02-27T15:05:49.760Z,213816.00
2023-02-27T15:12:03.548Z,213625.00
2023-02-27T15:18:14.421Z,213473.00
2023-02-27T15:24:50.352Z,213336.00
2023-02-27T15:30:55.872Z,213170.00
2023-02-27T15:37:00.122Z,213053.00
2023-02-27T15:43:02.779Z,212981.00
2023-02-27T15:49:05.336Z,212975.00
2023-02-27T15:55:15.024Z,212945.00
2023-02-27T16:01:22.996Z,212836.00
2023-02-27T16:07:26.933Z,212760.00
2023-02-27T16:13:35.323Z,212780.00
2023-02-27T16:19:41.045Z,212780.00
2023-02-27T16:25:59.588Z,212752.00
2023-02-27T16:34:00.145Z,212735.00
2023-02-27T16:40:02.560Z,212735.00
2023-02-27T16:46:05.395Z,212726.00
2023-02-27T16:52:11.318Z,212735.00
2023-02-27T16:58:15.820Z,212733.00
2023-02-27T17:04:25.643Z,212632.00
2023-02-27T17:10:29.048Z,212638.00
2023-02-27T17:16:31.768Z,212666.00
2023-02-27T17:22:41.206Z,212632.00
2023-02-27T17:28:43.945Z,212549.00
2023-02-27T17:34:46.280Z,212590.00
2023-02-27T17:40:48.739Z,212577.00
2023-02-27T17:46:51.203Z,212519.00
2023-02-27T17:52:53.434Z,212460.00
2023-02-27T17:58:55.845Z,212421.00
2023-02-27T18:04:58.617Z,212391.00
2023-02-27T18:11:01.676Z,212337.00
2023-02-27T18:17:04.044Z,212316.00
2023-02-27T18:23:11.805Z,212399.00
2023-02-27T18:29:14.703Z,212385.00
2023-02-27T18:35:17.216Z,212385.00
2023-02-27T18:41:19.506Z,212407.00
2023-02-27T18:47:21.669Z,212385.00
2023-02-27T18:53:23.735Z,212296.00
2023-02-27T18:59:25.972Z,212215.00
2023-02-27T19:05:28.386Z,212182.00
2023-02-27T19:11:35.753Z,212120.00
2023-02-27T19:17:38.237Z,212086.00
2023-02-27T19:23:40.583Z,212146.00
2023-02-27T19:29:43.157Z,212106.00
2023-02-27T19:35:45.730Z,212066.00
2023-02-27T19:41:48.065Z,211989.00
2023-02-27T19:47:50.300Z,216034.00
2023-02-27T19:53:54.052Z,215979.00
2023-02-27T19:59:56.209Z,215943.00
2023-02-27T20:05:58.685Z,215951.00
2023-02-27T20:12:01.773Z,215965.00
2023-02-27T20:18:03.928Z,215965.00
2023-02-27T20:24:06.426Z,215937.00
2023-02-27T20:30:09.320Z,215951.00
2023-02-27T20:36:12.299Z,215951.00
2023-02-27T20:42:17.372Z,215909.00
2023-02-27T20:48:19.548Z,215943.00
2023-02-27T20:54:21.786Z,215951.00
2023-02-27T21:00:25.682Z,215943.00
2023-02-27T21:06:28.012Z,215895.00
2023-02-27T21:12:30.538Z,215828.00
2023-02-27T21:18:32.914Z,215803.00
2023-02-27T21:24:35.121Z,215722.00
2023-02-27T21:30:37.821Z,215626.00
2023-02-27T21:36:42.585Z,215498.00
2023-02-27T21:42:45.018Z,215355.00
2023-02-27T21:48:47.156Z,215255.00
2023-02-27T21:54:50.690Z,215241.00
2023-02-27T22:00:53.329Z,215241.00
2023-02-27T22:06:55.400Z,215168.00
2023-02-27T22:12:57.880Z,215134.00
2023-02-27T22:19:00.186Z,215112.00
2023-02-27T22:25:02.773Z,215078.00
2023-02-27T22:31:15.716Z,215045.00
2023-02-27T22:37:20.173Z,214998.00
2023-02-27T22:43:23.060Z,214998.00
2023-02-27T22:49:25.123Z,214978.00
2023-02-27T22:55:27.423Z,214939.00
2023-02-27T23:01:32.599Z,214863.00
2023-02-27T23:07:35.077Z,214796.00
2023-02-27T23:13:37.133Z,214776.00
2023-02-27T23:19:39.236Z,214759.00
2023-02-27T23:25:41.678Z,214735.00
2023-02-27T23:31:43.983Z,214759.00
2023-02-27T23:37:46.325Z,214723.00
2023-02-27T23:44:11.197Z,214664.00
2023-02-27T23:50:13.420Z,214628.00
2023-02-27T23:56:18.675Z,214608.00
